Shawville, Pennsylvania
Current Conditions -  °F | °C
As of 3:54 AM on Wednesday 22 Oct 2014 (Local Time) from KFIG Reporting Station
Overcast Overcast  
Wind Chill: 46°   Ceiling: 1600
Heat Index: 49°   Visibility: 10mi
Dew Point: 45°   Wind: 7mph
Humidity: 86%   Direction: 10°N
Pressure: 29.99"   Gusts: NA
Location:  41.07°N, 78.36°W
Report Text: KFIG 220754Z AUTO 01006KT 10SM OVC016 09/07 A2999 RMK AO2 SLP159 T00940072
Loading
Personal Weather Stations






























Interactive Weather Map
Tropical Storm Tracking
New forecast layout! Learn more

10-Day Weather Forecast

Advertisements
Track Severe Weather on mobile